Time;durP1;ratioP1;P1;durP2;ratioP2;P2;SDS_P1;SDS_P2;PMS_P1;PMS_P2;Temp;Humidity;BMP_temperature;BMP_pressure;BME280_temperature;BME280_humidity;BME280_pressure;Samples;Min_cycle;Max_cycle;Signal;HPM_P1;HPM_P2
2021/09/17 00:02:00;;;;;;;2.40;2.20;;;;;;;22.89;90.75;97535.84;4982872;28;20278;-68
2021/09/17 00:04:27;;;;;;;2.40;2.20;;;;;;;22.81;90.77;97523.69;4969852;28;20636;-68
2021/09/17 00:06:53;;;;;;;2.23;2.13;;;;;;;22.81;91.01;97522.00;4966327;28;20867;-69
2021/09/17 00:09:20;;;;;;;2.47;2.27;;;;;;;22.86;90.75;97529.78;4968102;28;20993;-68
2021/09/17 00:11:47;;;;;;;2.50;2.30;;;;;;;22.79;90.81;97515.06;4970384;28;21005;-68
2021/09/17 00:14:14;;;;;;;2.50;2.30;;;;;;;22.89;90.92;97535.00;4986077;28;20676;-68
2021/09/17 00:16:41;;;;;;;2.20;2.10;;;;;;;22.88;91.17;97529.00;4969872;28;20254;-67
2021/09/17 00:19:07;;;;;;;2.20;2.00;;;;;;;21.98;91.08;97374.75;4985757;28;20649;-68
2021/09/17 00:21:34;;;;;;;2.33;2.13;;;;;;;22.76;91.10;97522.69;4989148;28;20206;-67
2021/09/17 00:24:00;;;;;;;2.37;2.17;;;;;;;22.51;91.41;97467.44;4970354;28;20307;-68
2021/09/17 00:26:27;;;;;;;2.53;2.33;;;;;;;22.78;90.97;97509.09;4970524;28;20214;-68
2021/09/17 00:28:54;;;;;;;2.30;2.10;;;;;;;22.86;91.34;97519.53;4970027;28;20287;-69
2021/09/17 00:31:20;;;;;;;2.43;2.23;;;;;;;22.03;91.03;97388.53;4971539;28;20428;-68
2021/09/17 00:33:47;;;;;;;2.50;2.27;;;;;;;22.87;90.99;97531.50;4984223;28;20203;-69
2021/09/17 00:36:14;;;;;;;2.40;2.20;;;;;;;22.79;91.03;97523.63;4971065;28;20211;-68
2021/09/17 00:38:40;;;;;;;2.10;1.90;;;;;;;22.48;90.92;97463.91;4987706;28;20527;-68
2021/09/17 00:41:07;;;;;;;2.27;2.07;;;;;;;22.76;90.92;97510.75;4990376;28;20293;-68
2021/09/17 00:43:33;;;;;;;2.33;2.17;;;;;;;22.61;91.06;97481.31;4959752;28;20705;-68
2021/09/17 00:46:00;;;;;;;2.70;2.50;;;;;;;22.87;91.41;97526.38;4970148;28;20208;-68
2021/09/17 00:48:27;;;;;;;2.53;2.13;;;;;;;22.87;91.26;97529.81;4970699;28;20254;-68
2021/09/17 00:50:53;;;;;;;2.17;2.00;;;;;;;22.87;91.45;97526.38;4971489;28;20619;-70
2021/09/17 00:53:20;;;;;;;2.40;2.20;;;;;;;22.87;91.35;97528.94;4969126;28;20660;-69
2021/09/17 00:55:46;;;;;;;2.53;2.33;;;;;;;22.02;91.20;97390.22;4955685;28;20693;-68
2021/09/17 00:58:13;;;;;;;2.40;2.20;;;;;;;22.04;91.18;97380.88;4970865;28;20270;-68
2021/09/17 01:00:39;;;;;;;2.40;2.20;;;;;;;22.85;91.21;97521.22;4965493;28;20442;-68
2021/09/17 01:03:06;;;;;;;2.20;2.10;;;;;;;22.54;91.67;97464.97;4974083;28;20200;-68
2021/09/17 01:05:34;;;;;;;2.47;2.27;;;;;;;22.80;91.35;97512.56;4950096;28;20298;-69
2021/09/17 01:08:01;;;;;;;2.30;2.10;;;;;;;22.81;91.27;97511.75;4969433;28;20251;-68
2021/09/17 01:10:27;;;;;;;2.50;2.30;;;;;;;22.46;91.17;97437.38;4956385;28;20382;-68
2021/09/17 01:12:54;;;;;;;2.10;2.00;;;;;;;22.85;91.14;97508.41;4938251;28;20242;-68
2021/09/17 01:15:21;;;;;;;2.27;2.07;;;;;;;22.51;91.05;97444.41;4961869;28;20642;-69
2021/09/17 01:17:48;;;;;;;2.07;1.97;;;;;;;22.86;91.31;97501.59;4970195;28;20666;-68
2021/09/17 01:20:16;;;;;;;1.97;1.87;;;;;;;22.02;90.81;97353.53;4970555;28;20290;-68
2021/09/17 01:22:43;;;;;;;2.10;2.00;;;;;;;22.01;90.93;97356.91;4961294;28;20254;-68
2021/09/17 01:25:11;;;;;;;2.30;2.10;;;;;;;22.78;91.00;97492.84;4958875;28;20218;-67
2021/09/17 01:27:37;;;;;;;2.37;2.17;;;;;;;22.81;91.28;97492.94;4967807;28;21115;-69
2021/09/17 01:30:05;;;;;;;2.20;2.00;;;;;;;22.76;91.21;97484.25;4969167;28;20239;-69
2021/09/17 01:32:32;;;;;;;2.70;2.10;;;;;;;22.44;91.15;97431.38;4953380;28;20347;-68
2021/09/17 01:34:59;;;;;;;2.40;2.20;;;;;;;22.84;91.32;97493.88;4939804;28;20226;-68
2021/09/17 01:37:25;;;;;;;2.50;2.30;;;;;;;22.84;91.29;97499.00;4974684;28;20310;-68
2021/09/17 01:39:52;;;;;;;1.97;1.87;;;;;;;22.83;91.41;97489.56;4968842;28;20294;-69
2021/09/17 01:42:19;;;;;;;2.10;2.00;;;;;;;22.83;91.44;97497.25;4973731;28;20238;-68
2021/09/17 01:44:45;;;;;;;2.37;2.17;;;;;;;22.84;91.58;97490.44;4969115;28;20316;-69
2021/09/17 01:47:12;;;;;;;2.30;2.10;;;;;;;22.84;91.58;97493.00;4969786;28;20254;-68
2021/09/17 01:49:38;;;;;;;2.40;2.20;;;;;;;22.84;91.23;97490.44;4956161;28;20511;-68
2021/09/17 01:52:05;;;;;;;2.17;2.07;;;;;;;22.84;91.22;97498.13;4958868;28;20464;-70
2021/09/17 01:54:32;;;;;;;2.03;1.90;;;;;;;22.56;90.79;97441.94;4969939;28;20303;-68
2021/09/17 01:56:59;;;;;;;2.00;1.90;;;;;;;22.81;91.11;97485.25;4968081;28;20325;-67
2021/09/17 01:59:25;;;;;;;3.43;2.00;;;;;;;22.84;91.02;97488.75;4969224;28;20575;-69
2021/09/17 02:01:52;;;;;;;2.23;2.13;;;;;;;22.81;91.38;97480.13;4970529;28;20673;-67
2021/09/17 02:04:19;;;;;;;2.33;2.13;;;;;;;22.84;91.26;97482.75;4967628;28;20622;-69
2021/09/17 02:06:45;;;;;;;2.23;1.90;;;;;;;22.74;90.80;97463.72;4969372;28;20325;-68
2021/09/17 02:09:12;;;;;;;2.13;2.03;;;;;;;22.84;91.29;97483.63;4954977;28;20228;-69
2021/09/17 02:11:39;;;;;;;2.17;2.07;;;;;;;22.56;91.29;97436.84;4958121;28;20306;-68
2021/09/17 02:14:05;;;;;;;2.50;2.30;;;;;;;22.80;91.21;97468.16;4969015;28;20239;-68
2021/09/17 02:16:32;;;;;;;2.40;2.20;;;;;;;22.75;91.17;97462.91;4961474;28;20263;-68
2021/09/17 02:18:59;;;;;;;2.30;2.13;;;;;;;22.84;91.62;97477.63;4953881;28;20287;-68
2021/09/17 02:21:26;;;;;;;2.20;2.10;;;;;;;22.81;91.22;97475.88;4971260;28;20732;-68
2021/09/17 02:23:52;;;;;;;2.30;2.10;;;;;;;21.99;91.30;97327.88;4944092;28;20302;-68
2021/09/17 02:26:19;;;;;;;2.23;2.03;;;;;;;22.74;91.65;97463.72;4959512;28;20555;-68
2021/09/17 02:28:45;;;;;;;2.20;2.10;;;;;;;22.52;91.40;97420.50;4958969;28;20251;-69
2021/09/17 02:31:12;;;;;;;2.03;1.93;;;;;;;21.84;90.96;97319.81;4943575;28;20216;-68
2021/09/17 02:33:39;;;;;;;2.43;2.23;;;;;;;22.51;91.17;97423.03;4944082;28;20239;-69
2021/09/17 02:36:05;;;;;;;2.13;2.00;;;;;;;22.84;91.05;97482.75;4958024;28;20299;-68
2021/09/17 02:38:32;;;;;;;3.50;2.10;;;;;;;22.06;91.18;97343.41;4968752;28;20266;-69
2021/09/17 02:40:59;;;;;;;2.20;2.00;;;;;;;22.84;91.22;97480.19;4957527;28;20231;-68
2021/09/17 02:43:25;;;;;;;2.00;1.90;;;;;;;22.82;91.28;97471.59;4968212;28;20211;-68
2021/09/17 02:45:52;;;;;;;2.40;2.20;;;;;;;22.83;91.18;97475.91;4948159;28;20239;-70
2021/09/17 02:48:19;;;;;;;2.00;1.90;;;;;;;22.76;91.10;97461.19;4971482;28;20267;-69
2021/09/17 02:50:45;;;;;;;2.30;2.10;;;;;;;22.44;91.38;97405.78;4958125;28;20690;-68
2021/09/17 02:53:12;;;;;;;2.23;2.07;;;;;;;22.46;91.45;97406.66;4958770;28;20290;-68
2021/09/17 02:55:38;;;;;;;1.90;1.80;;;;;;;22.69;91.34;97451.66;4969644;28;20241;-68
2021/09/17 02:58:05;;;;;;;2.20;2.10;;;;;;;22.83;91.11;97483.59;4997343;22;20269;-66
2021/09/17 03:00:32;;;;;;;3.07;2.13;;;;;;;22.83;91.35;97470.78;5005800;28;20256;-65
2021/09/17 03:02:59;;;;;;;2.60;2.40;;;;;;;22.83;91.47;97470.78;5006235;28;20552;-66
2021/09/17 03:05:25;;;;;;;2.40;2.20;;;;;;;22.62;91.38;97437.81;5007277;28;20234;-65
2021/09/17 03:07:52;;;;;;;2.50;2.30;;;;;;;22.83;91.10;97471.63;5006545;28;20234;-66
2021/09/17 03:10:18;;;;;;;2.10;2.00;;;;;;;22.47;91.14;97408.41;5007064;28;20207;-66
2021/09/17 03:12:45;;;;;;;2.30;2.10;;;;;;;22.50;91.40;97417.03;5007036;28;20685;-66
2021/09/17 03:15:13;;;;;;;2.00;1.90;;;;;;;22.83;91.06;97481.03;5007465;28;20237;-66
2021/09/17 03:17:39;;;;;;;2.50;2.30;;;;;;;22.83;90.99;97476.75;5004174;28;20245;-65
2021/09/17 03:20:06;;;;;;;2.27;2.07;;;;;;;22.82;91.14;97467.34;5007159;28;20233;-65
2021/09/17 03:22:33;;;;;;;2.13;2.03;;;;;;;22.41;90.97;97403.13;5006973;28;20309;-65
2021/09/17 03:25:00;;;;;;;2.13;2.03;;;;;;;22.83;91.23;97465.66;5005110;28;20587;-66
2021/09/17 03:27:27;;;;;;;2.30;2.17;;;;;;;22.82;91.37;97471.59;5006525;28;20751;-67
2021/09/17 03:29:53;;;;;;;2.13;1.93;;;;;;;22.82;91.26;97467.34;5007098;28;20229;-65
2021/09/17 03:32:20;;;;;;;2.20;2.07;;;;;;;21.70;91.20;97278.50;5007127;28;20333;-65
2021/09/17 03:34:47;;;;;;;2.20;2.10;;;;;;;22.82;91.16;97472.47;5006686;28;20293;-65
2021/09/17 03:37:13;;;;;;;2.20;2.10;;;;;;;21.97;91.39;97322.72;5006385;28;20317;-66
2021/09/17 03:39:40;;;;;;;2.33;2.20;;;;;;;22.42;91.05;97407.41;5006742;28;20256;-66
2021/09/17 03:42:07;;;;;;;2.00;1.90;;;;;;;22.75;91.30;97468.03;5006868;28;20664;-66
2021/09/17 03:44:34;;;;;;;2.17;2.00;;;;;;;22.76;91.24;97471.44;5006580;28;20230;-66
2021/09/17 03:47:01;;;;;;;2.10;2.00;;;;;;;22.82;90.96;97475.03;5005029;28;20672;-65
2021/09/17 03:49:28;;;;;;;2.10;2.00;;;;;;;22.73;91.29;97463.69;5006723;28;20285;-67
2021/09/17 03:51:56;;;;;;;2.03;1.93;;;;;;;22.73;91.47;97466.25;5007128;28;20672;-67
2021/09/17 03:54:26;;;;;;;2.47;2.10;;;;;;;22.82;91.14;97485.28;4984073;28;20230;-66
2021/09/17 03:56:56;;;;;;;2.37;2.17;;;;;;;22.55;91.16;97432.50;5009494;28;20214;-66
2021/09/17 03:59:23;;;;;;;2.30;2.10;;;;;;;22.83;90.55;97483.59;5010861;28;20214;-66
2021/09/17 04:01:50;;;;;;;2.17;1.97;;;;;;;22.82;91.08;97480.16;5012003;28;20198;-66
2021/09/17 04:04:17;;;;;;;2.33;2.13;;;;;;;22.83;91.01;97489.56;5009219;28;20210;-66
2021/09/17 04:06:43;;;;;;;2.23;2.13;;;;;;;22.83;90.84;97483.59;5010227;28;20234;-66
2021/09/17 04:09:10;;;;;;;2.30;2.10;;;;;;;22.83;91.23;97473.34;5009587;28;20230;-65
2021/09/17 04:11:37;;;;;;;2.70;2.30;;;;;;;22.82;91.11;97475.03;5014016;28;20268;-66
2021/09/17 04:14:03;;;;;;;2.60;2.40;;;;;;;22.83;91.23;97478.47;5010322;28;20736;-66
2021/09/17 04:16:30;;;;;;;2.27;2.10;;;;;;;22.82;91.15;97475.03;5010246;28;20337;-66
2021/09/17 04:18:57;;;;;;;2.40;2.20;;;;;;;22.83;90.96;97469.06;5009776;28;20304;-66
2021/09/17 04:21:23;;;;;;;2.60;2.07;;;;;;;21.85;91.00;97312.19;5012994;28;20237;-66
2021/09/17 04:23:50;;;;;;;2.20;2.10;;;;;;;22.17;91.05;97359.88;5010985;28;20747;-65
2021/09/17 04:26:16;;;;;;;2.40;2.20;;;;;;;22.82;91.09;97472.47;5010447;28;20252;-66
2021/09/17 04:28:43;;;;;;;2.30;2.10;;;;;;;22.50;91.10;97424.72;5009792;28;20258;-66
2021/09/17 04:31:09;;;;;;;2.40;2.20;;;;;;;21.90;91.14;97310.59;5009630;28;20290;-66
2021/09/17 04:33:36;;;;;;;2.20;2.10;;;;;;;22.84;91.25;97478.50;5010633;28;20264;-66
2021/09/17 04:36:03;;;;;;;2.00;1.90;;;;;;;22.84;91.15;97481.06;5009846;28;20238;-65
2021/09/17 04:38:29;;;;;;;2.30;2.10;;;;;;;22.85;91.11;97480.22;5009978;28;20840;-65
2021/09/17 04:40:56;;;;;;;2.30;2.10;;;;;;;22.54;91.01;97425.66;5009927;28;20612;-65
2021/09/17 04:43:22;;;;;;;2.23;2.13;;;;;;;21.86;91.34;97300.25;5010584;28;20281;-65
2021/09/17 04:45:49;;;;;;;2.40;2.20;;;;;;;21.90;90.91;97312.28;5009467;28;20281;-66
2021/09/17 04:48:16;;;;;;;1.93;1.83;;;;;;;22.54;90.70;97415.44;5007429;28;20325;-65
2021/09/17 04:50:42;;;;;;;2.33;2.13;;;;;;;22.88;90.71;97476.84;5008513;28;20238;-66
2021/09/17 04:53:09;;;;;;;2.40;2.20;;;;;;;22.89;90.56;97476.06;5009090;28;20261;-66
2021/09/17 04:55:36;;;;;;;2.37;2.20;;;;;;;22.88;90.46;97479.41;5010697;28;20202;-65
2021/09/17 04:58:03;;;;;;;3.67;3.37;;;;;;;22.77;89.65;97462.94;5008820;28;20680;-65
2021/09/17 05:00:30;;;;;;;6.20;5.63;;;;;;;22.86;86.12;97479.38;5008848;28;20896;-64
2021/09/17 05:02:57;;;;;;;8.03;7.13;;;;;;;22.86;83.16;97481.94;5008469;28;20198;-65
2021/09/17 05:05:24;;;;;;;10.60;7.50;;;;;;;22.85;80.13;97487.03;5008973;28;20607;-65
2021/09/17 05:07:50;;;;;;;9.10;8.20;;;;;;;22.77;77.79;97474.03;5007940;28;20257;-65
2021/09/17 05:10:17;;;;;;;9.17;8.27;;;;;;;22.82;76.14;97490.41;5007886;28;20264;-64
2021/09/17 05:12:44;;;;;;;10.77;9.37;;;;;;;22.53;74.87;97441.88;5008127;28;20237;-65
2021/09/17 05:15:11;;;;;;;10.87;9.00;;;;;;;22.79;73.92;97490.31;5009652;28;20257;-65
2021/09/17 05:17:41;;;;;;;10.67;8.93;;;;;;;22.42;72.40;97428.78;5005489;28;20253;-66
2021/09/17 05:20:09;;;;;;;11.20;9.47;;;;;;;21.80;71.36;97338.47;5009177;28;20297;-64
2021/09/17 05:22:35;;;;;;;10.43;9.30;;;;;;;22.75;71.14;97498.78;5007141;28;20320;-64
2021/09/17 05:25:03;;;;;;;11.50;10.30;;;;;;;22.67;70.83;97487.47;5007802;28;20981;-64
2021/09/17 05:27:29;;;;;;;11.60;9.37;;;;;;;22.73;70.80;97503.00;5009412;28;20313;-64
2021/09/17 05:29:57;;;;;;;11.43;9.20;;;;;;;22.72;70.18;97505.53;5008121;28;20683;-64
2021/09/17 05:32:24;;;;;;;11.53;9.57;;;;;;;22.70;70.00;97508.03;5003292;28;20249;-64
2021/09/17 05:34:50;;;;;;;11.37;10.30;;;;;;;22.70;70.09;97517.41;5008375;28;20901;-63
2021/09/17 05:37:17;;;;;;;10.60;9.50;;;;;;;22.68;70.08;97506.28;5013110;28;20306;-64
2021/09/17 05:39:43;;;;;;;10.60;9.50;;;;;;;22.65;70.27;97509.63;5009947;28;20553;-64
2021/09/17 05:42:10;;;;;;;11.57;9.97;;;;;;;22.11;70.87;97417.75;5011909;28;20281;-64
2021/09/17 05:44:36;;;;;;;10.67;9.53;;;;;;;22.63;71.85;97508.75;5007802;28;20288;-64
2021/09/17 05:47:03;;;;;;;11.13;9.03;;;;;;;22.63;72.60;97508.75;5009218;28;20273;-63
2021/09/17 05:49:30;;;;;;;15.37;8.93;;;;;;;22.62;72.83;97499.28;5006305;28;20293;-64
2021/09/17 05:51:57;;;;;;;13.03;8.83;;;;;;;22.62;72.92;97506.97;5008889;28;20310;-65
2021/09/17 05:54:23;;;;;;;12.00;9.93;;;;;;;22.61;72.00;97502.69;5012537;28;20238;-63
2021/09/17 05:56:50;;;;;;;15.00;9.57;;;;;;;22.61;70.88;97509.50;5011413;28;20292;-64
2021/09/17 05:59:16;;;;;;;11.97;10.10;;;;;;;22.59;70.19;97513.75;5008434;28;20745;-64
2021/09/17 06:01:43;;;;;;;13.87;9.90;;;;;;;22.59;69.58;97504.34;5010578;28;20298;-64
2021/09/17 06:04:10;;;;;;;12.07;9.53;;;;;;;22.59;69.96;97511.19;5011485;28;20288;-65
2021/09/17 06:06:36;;;;;;;12.07;9.53;;;;;;;22.57;70.18;97511.16;5013168;28;20206;-65
2021/09/17 06:09:03;;;;;;;12.43;9.37;;;;;;;22.58;70.67;97512.00;5009971;28;20272;-65
2021/09/17 06:11:29;;;;;;;10.60;9.50;;;;;;;22.58;70.50;97512.88;5008339;28;20292;-64
2021/09/17 06:13:56;;;;;;;11.63;9.20;;;;;;;22.57;70.28;97513.72;5013675;28;20246;-65
2021/09/17 06:16:23;;;;;;;11.83;9.63;;;;;;;22.58;70.68;97517.09;5008819;28;20755;-66
2021/09/17 06:18:50;;;;;;;11.73;10.13;;;;;;;22.57;70.68;97516.28;5005938;28;20249;-65
2021/09/17 06:21:16;;;;;;;11.00;9.77;;;;;;;22.57;70.79;97515.38;5013904;28;20245;-65
2021/09/17 06:23:43;;;;;;;9.93;8.83;;;;;;;22.57;70.78;97516.28;5005889;28;20285;-65
2021/09/17 06:26:09;;;;;;;10.73;9.03;;;;;;;22.57;70.86;97516.28;5007110;28;20292;-65
2021/09/17 06:28:36;;;;;;;10.23;9.30;;;;;;;22.57;70.81;97512.81;5010856;28;20261;-64
2021/09/17 06:31:03;;;;;;;11.13;9.30;;;;;;;22.57;70.70;97520.50;5006584;28;20241;-65
2021/09/17 06:33:29;;;;;;;10.83;9.07;;;;;;;22.57;70.53;97516.28;5007130;28;20226;-65
2021/09/17 06:35:56;;;;;;;14.67;9.80;;;;;;;22.58;70.35;97512.88;5006899;28;20260;-66
2021/09/17 06:38:22;;;;;;;10.03;8.97;;;;;;;22.58;71.04;97523.13;5007482;28;20663;-65
2021/09/17 06:40:49;;;;;;;11.33;9.23;;;;;;;22.59;71.14;97526.56;5009831;28;20245;-66
2021/09/17 06:43:15;;;;;;;10.67;8.73;;;;;;;22.58;70.94;97525.66;5006365;28;20657;-66
2021/09/17 06:45:42;;;;;;;11.07;9.00;;;;;;;22.58;71.36;97523.13;5010654;28;20244;-65
2021/09/17 06:48:09;;;;;;;12.30;9.37;;;;;;;22.59;71.66;97527.41;5009371;28;20314;-65
2021/09/17 06:50:35;;;;;;;12.87;9.27;;;;;;;22.59;72.46;97524.84;5004272;28;20294;-66
2021/09/17 06:53:02;;;;;;;9.53;8.63;;;;;;;22.60;72.57;97528.28;5007613;28;20572;-66
2021/09/17 06:55:30;;;;;;;12.57;8.20;;;;;;;22.61;73.68;97524.88;5006292;28;20305;-65
2021/09/17 06:57:58;;;;;;;9.00;7.77;;;;;;;22.61;74.21;97527.44;5011445;28;20288;-66
2021/09/17 07:00:26;;;;;;;9.13;8.23;;;;;;;22.61;74.51;97522.31;5003881;28;20210;-65
2021/09/17 07:02:52;;;;;;;9.43;7.80;;;;;;;22.62;75.01;97517.22;5006088;28;20241;-65
2021/09/17 07:05:20;;;;;;;8.23;7.53;;;;;;;22.63;75.25;97523.22;5006513;28;20209;-65
2021/09/17 07:07:47;;;;;;;8.77;7.90;;;;;;;22.63;75.64;97526.66;5006835;28;20310;-65
2021/09/17 07:10:14;;;;;;;8.07;7.23;;;;;;;22.63;75.89;97513.84;5005179;28;20202;-64
2021/09/17 07:12:40;;;;;;;8.10;6.97;;;;;;;22.65;76.17;97513.91;5005403;28;20830;-65
2021/09/17 07:15:08;;;;;;;16.93;7.67;;;;;;;22.65;76.69;97512.19;5001321;28;20237;-64
2021/09/17 07:17:34;;;;;;;9.43;8.33;;;;;;;22.66;75.33;97521.63;5010322;28;20313;-64
2021/09/17 07:20:01;;;;;;;10.43;9.00;;;;;;;22.67;74.14;97510.53;5010872;28;20232;-63
2021/09/17 07:22:28;;;;;;;13.13;8.93;;;;;;;22.67;73.41;97517.34;5009269;28;20217;-65
2021/09/17 07:24:54;;;;;;;15.33;9.60;;;;;;;22.66;73.53;97513.94;5005735;28;20202;-65
2021/09/17 07:27:21;;;;;;;10.50;8.00;;;;;;;22.70;74.61;97519.97;5006910;28;20887;-65
2021/09/17 07:29:48;;;;;;;14.30;8.83;;;;;;;22.65;75.95;97508.78;5008952;28;20206;-70
2021/09/17 07:32:14;;;;;;;21.57;8.33;;;;;;;22.71;76.29;97520.00;5006325;28;20205;-65
2021/09/17 07:34:41;;;;;;;14.03;7.80;;;;;;;22.73;76.50;97525.19;5005876;28;20304;-65
2021/09/17 07:37:08;;;;;;;8.97;7.47;;;;;;;22.73;76.74;97522.63;5008146;28;20285;-66
2021/09/17 07:39:34;;;;;;;14.73;7.40;;;;;;;22.72;77.04;97519.22;5006706;28;20707;-65
2021/09/17 07:42:01;;;;;;;13.33;8.10;;;;;;;22.73;77.15;97518.38;5009848;28;20285;-65
2021/09/17 07:44:27;;;;;;;14.93;7.37;;;;;;;22.74;77.53;97529.50;5006835;28;20241;-64
2021/09/17 07:46:54;;;;;;;13.80;7.73;;;;;;;22.73;78.28;97517.50;5008973;28;20293;-65
2021/09/17 07:49:20;;;;;;;18.43;7.67;;;;;;;22.74;77.67;97529.50;5013121;28;20230;-65
2021/09/17 07:51:47;;;;;;;14.47;7.90;;;;;;;22.74;78.05;97534.63;5012389;28;20285;-66
2021/09/17 07:54:15;;;;;;;14.93;6.83;;;;;;;22.74;78.40;97530.34;5006610;28;20775;-65
2021/09/17 07:56:41;;;;;;;22.53;7.53;;;;;;;22.74;78.40;97534.63;5006318;28;20234;-65
2021/09/17 07:59:08;;;;;;;15.63;7.50;;;;;;;22.73;78.67;97533.75;4999591;28;20317;-65
2021/09/17 08:01:34;;;;;;;10.23;7.80;;;;;;;22.73;77.50;97538.88;5003855;28;20248;-66
2021/09/17 08:04:02;;;;;;;12.50;8.90;;;;;;;22.72;76.33;97537.16;5006520;28;20210;-65
2021/09/17 08:06:29;;;;;;;16.50;8.30;;;;;;;22.72;76.30;97542.25;5003941;28;20615;-65
2021/09/17 08:08:55;;;;;;;18.63;8.20;;;;;;;22.73;76.59;97540.56;5002603;28;20307;-66
2021/09/17 08:11:22;;;;;;;11.40;8.90;;;;;;;22.72;76.19;97534.56;5005528;28;20431;-66
2021/09/17 08:13:48;;;;;;;17.20;8.63;;;;;;;22.71;75.94;97531.97;5005176;28;20318;-65
2021/09/17 08:16:15;;;;;;;13.30;8.70;;;;;;;22.71;76.76;97532.81;5006053;28;20206;-65
2021/09/17 08:18:44;;;;;;;9.90;8.60;;;;;;;22.72;76.91;97531.13;5006161;28;20688;-65
2021/09/17 08:21:12;;;;;;;9.97;7.90;;;;;;;22.71;77.19;97532.81;5001327;28;20308;-65
2021/09/17 08:23:38;;;;;;;14.37;8.10;;;;;;;22.72;77.38;97528.56;5001806;28;20782;-66
2021/09/17 08:26:06;;;;;;;9.73;8.23;;;;;;;22.72;77.41;97528.56;5006897;28;20245;-64
2021/09/17 08:28:33;;;;;;;11.30;7.03;;;;;;;22.72;77.67;97529.47;5006338;28;20266;-65
2021/09/17 08:31:01;;;;;;;11.33;7.77;;;;;;;22.73;77.98;97527.75;5006910;28;20591;-64
2021/09/17 08:33:28;;;;;;;10.63;7.67;;;;;;;22.74;77.83;97530.34;5006782;28;20229;-65
2021/09/17 08:35:54;;;;;;;9.80;7.80;;;;;;;22.74;78.41;97532.91;5005698;28;20285;-65
2021/09/17 08:38:21;;;;;;;10.33;7.27;;;;;;;22.74;78.22;97529.50;5006012;28;20260;-66
2021/09/17 08:40:51;;;;;;;7.20;6.47;;;;;;;22.75;78.40;97534.66;5005962;28;20250;-66
2021/09/17 08:43:19;;;;;;;8.57;6.77;;;;;;;22.75;78.42;97531.22;5007988;28;20932;-64
2021/09/17 08:45:45;;;;;;;10.83;7.17;;;;;;;22.75;78.40;97534.66;5008652;28;20246;-66
2021/09/17 08:48:12;;;;;;;8.37;6.70;;;;;;;22.75;78.25;97532.09;5009095;28;20226;-65
2021/09/17 08:50:39;;;;;;;9.70;8.10;;;;;;;22.76;77.46;97536.38;5008794;28;20233;-65
2021/09/17 08:53:06;;;;;;;11.20;8.73;;;;;;;22.76;76.76;97540.63;5007974;28;20254;-66
2021/09/17 08:55:32;;;;;;;12.80;8.80;;;;;;;22.76;76.63;97540.63;5009021;28;20242;-66
2021/09/17 08:57:59;;;;;;;10.63;8.23;;;;;;;22.40;76.92;97480.75;5032609;22;20310;-67
2021/09/17 09:00:25;;;;;;;10.07;8.37;;;;;;;22.75;77.38;97544.03;5014684;28;20233;-68
2021/09/17 09:02:58;;;;;;;9.27;8.03;;;;;;;22.75;77.74;97542.34;5032987;28;20221;-67
2021/09/17 09:05:43;;;;;;;8.90;7.83;;;;;;;22.61;77.97;97523.19;5032792;28;20663;-67
2021/09/17 09:08:10;;;;;;;8.60;7.70;;;;;;;22.75;78.16;97549.16;5036217;28;20244;-67
2021/09/17 09:10:37;;;;;;;9.37;7.93;;;;;;;22.76;78.00;97548.31;5048229;28;20240;-68
2021/09/17 09:13:05;;;;;;;14.20;7.80;;;;;;;22.50;78.63;97505.78;5043798;28;20300;-67
2021/09/17 09:15:33;;;;;;;8.43;7.63;;;;;;;22.64;77.52;97519.81;5034106;28;20241;-68
2021/09/17 09:18:21;;;;;;;9.03;7.20;;;;;;;22.76;77.88;97535.50;5045043;28;20252;-68
2021/09/17 09:20:48;;;;;;;9.33;7.30;;;;;;;22.67;78.57;97523.34;5044474;28;20228;-67
2021/09/17 09:23:26;;;;;;;8.40;6.77;;;;;;;22.70;78.54;97528.53;5036343;28;20224;-67
2021/09/17 09:26:01;;;;;;;12.30;7.30;;;;;;;22.61;78.72;97510.38;5008533;28;20228;-67
2021/09/17 09:28:28;;;;;;;15.90;7.10;;;;;;;22.78;79.25;97534.72;5026793;28;20317;-67
2021/09/17 09:30:56;;;;;;;13.33;7.20;;;;;;;22.52;79.49;97483.66;5045379;28;20273;-67
2021/09/17 09:33:35;;;;;;;8.57;7.37;;;;;;;22.79;79.60;97533.00;5032352;28;20216;-67
2021/09/17 09:36:07;;;;;;;16.13;9.33;;;;;;;22.79;78.49;97528.75;5050254;28;20287;-68
2021/09/17 09:38:47;;;;;;;10.80;9.70;;;;;;;22.79;77.66;97526.19;5043890;28;20292;-66
2021/09/17 09:41:20;;;;;;;18.10;10.60;;;;;;;22.78;77.00;97529.59;5045203;28;20599;-68
2021/09/17 09:43:58;;;;;;;16.63;10.07;;;;;;;22.79;76.60;97520.19;5047856;28;20333;-67
2021/09/17 09:46:34;;;;;;;10.57;9.53;;;;;;;22.79;76.92;97522.75;5020891;28;20901;-68
2021/09/17 09:49:11;;;;;;;12.53;10.67;;;;;;;22.51;76.64;97469.13;5022897;28;20249;-67
2021/09/17 09:51:42;;;;;;;15.23;10.23;;;;;;;22.79;76.81;97515.94;5046626;28;20201;-68
2021/09/17 09:54:09;;;;;;;13.43;10.40;;;;;;;22.70;77.35;97502.91;5041448;28;20240;-72
2021/09/17 09:56:37;;;;;;;15.17;9.50;;;;;;;22.80;77.77;97511.72;5042024;28;20233;-67
2021/09/17 09:59:05;;;;;;;14.90;9.03;;;;;;;22.72;78.26;97503.84;5037647;28;20283;-68
2021/09/17 10:01:37;;;;;;;12.60;9.00;;;;;;;22.74;78.65;97499.59;5040419;28;20231;-67
2021/09/17 10:04:05;;;;;;;10.87;8.73;;;;;;;22.77;78.66;97504.78;5023900;28;20205;-67
2021/09/17 10:06:34;;;;;;;9.13;7.73;;;;;;;22.82;79.05;97507.47;5045450;28;20201;-68
2021/09/17 10:09:02;;;;;;;8.63;7.70;;;;;;;22.74;79.10;97486.78;5043820;28;20726;-67
2021/09/17 10:11:28;;;;;;;9.17;7.63;;;;;;;22.82;79.55;97508.34;5037807;28;20205;-67
2021/09/17 10:13:57;;;;;;;12.10;7.40;;;;;;;22.71;79.43;97480.75;5041286;28;20244;-68
2021/09/17 10:16:23;;;;;;;8.73;7.67;;;;;;;22.72;79.38;97477.34;5038281;28;20698;-67
2021/09/17 10:18:50;;;;;;;9.20;7.97;;;;;;;22.82;79.55;97492.09;5041143;28;20232;-68
2021/09/17 10:21:45;;;;;;;11.67;7.87;;;;;;;22.83;79.62;97493.84;5038033;28;20244;-67
2021/09/17 10:24:27;;;;;;;8.53;7.70;;;;;;;22.82;79.69;97482.72;5040500;28;20208;-67
2021/09/17 10:27:07;;;;;;;9.77;7.23;;;;;;;22.81;79.79;97481.00;5046645;28;20205;-67
2021/09/17 10:29:45;;;;;;;8.73;6.90;;;;;;;22.74;80.27;97465.44;5038824;28;20726;-67
2021/09/17 10:32:27;;;;;;;9.17;7.57;;;;;;;22.81;80.30;97469.88;5020967;28;20294;-67
2021/09/17 10:35:13;;;;;;;7.47;6.70;;;;;;;22.74;80.22;97460.31;5036172;28;20228;-67
2021/09/17 10:38:16;;;;;;;9.17;7.20;;;;;;;22.83;80.59;97468.22;5032554;28;20209;-68
2021/09/17 10:41:04;;;;;;;10.20;7.43;;;;;;;22.83;80.71;97469.06;5043215;28;20200;-68
2021/09/17 10:43:41;;;;;;;8.40;7.50;;;;;;;22.68;80.98;97443.09;5040283;28;20300;-68
2021/09/17 10:46:19;;;;;;;7.67;6.97;;;;;;;22.83;80.95;97463.09;5019871;28;20197;-68
2021/09/17 10:48:49;;;;;;;7.40;6.47;;;;;;;22.84;81.21;97462.25;5039533;28;20229;-68
2021/09/17 10:51:33;;;;;;;8.37;6.60;;;;;;;22.76;81.44;97448.38;5041338;28;20263;-68
2021/09/17 10:54:07;;;;;;;8.43;6.90;;;;;;;22.75;81.52;97438.97;5038581;28;20262;-68
2021/09/17 10:57:01;;;;;;;11.83;6.80;;;;;;;22.85;81.58;97466.53;5021577;28;20506;-68
2021/09/17 10:59:52;;;;;;;7.03;6.33;;;;;;;22.84;81.45;97464.81;5025766;28;20745;-68
2021/09/17 11:02:18;;;;;;;7.10;6.40;;;;;;;22.51;81.54;97405.97;5037231;28;20205;-68
2021/09/17 11:04:58;;;;;;;7.37;6.67;;;;;;;22.83;81.46;97458.81;5037798;28;20197;-68
2021/09/17 11:07:32;;;;;;;7.67;5.97;;;;;;;22.83;81.53;97458.81;5028999;28;20205;-68
2021/09/17 11:09:58;;;;;;;7.27;5.97;;;;;;;22.82;81.50;97454.53;5013412;28;20248;-68
2021/09/17 11:12:29;;;;;;;6.90;6.07;;;;;;;22.82;81.71;97461.34;5043752;28;20213;-68
2021/09/17 11:15:16;;;;;;;7.23;5.90;;;;;;;22.83;82.21;97458.81;5037886;28;20721;-68
2021/09/17 11:17:45;;;;;;;7.07;6.17;;;;;;;22.83;82.38;97456.25;5033340;28;20582;-68
2021/09/17 11:20:14;;;;;;;6.50;5.80;;;;;;;22.54;82.47;97403.50;5037696;28;20289;-68
2021/09/17 11:22:54;;;;;;;5.77;5.27;;;;;;;22.82;82.78;97451.97;5040483;28;20209;-68
2021/09/17 11:25:22;;;;;;;6.47;5.87;;;;;;;22.58;83.05;97407.84;5043525;28;20606;-68
2021/09/17 11:27:48;;;;;;;6.30;5.70;;;;;;;22.83;83.12;97445.16;5027218;28;20255;-68
2021/09/17 11:30:15;;;;;;;7.27;6.23;;;;;;;22.76;83.31;97433.00;5043602;28;20239;-68
2021/09/17 11:32:41;;;;;;;6.07;5.47;;;;;;;22.71;83.32;97426.94;5024336;28;20619;-68
2021/09/17 11:35:09;;;;;;;7.30;5.83;;;;;;;22.82;83.58;97441.72;5033944;28;20275;-68